sensor_id;sensor_type;location;lat;lon;timestamp;pressure;altitude;pressure_sealevel;temperature;humidity
4149;BME280;2088;51.032;7.082;2022-07-23T00:00:09;49579.38;;;-142.28;94.46
4149;BME280;2088;51.032;7.082;2022-07-23T00:02:35;49589.06;;;-142.28;95.90
4149;BME280;2088;51.032;7.082;2022-07-23T00:05:02;49585.19;;;-142.28;96.04
4149;BME280;2088;51.032;7.082;2022-07-23T00:07:29;49616.16;;;-142.28;95.82
4149;BME280;2088;51.032;7.082;2022-07-23T00:09:55;49606.47;;;-142.28;96.41
4149;BME280;2088;51.032;7.082;2022-07-23T00:12:22;49616.16;;;-142.28;97.71
4149;BME280;2088;51.032;7.082;2022-07-23T00:14:48;49610.34;;;-142.28;98.28
4149;BME280;2088;51.032;7.082;2022-07-23T00:17:16;49641.31;;;-142.28;99.69
4149;BME280;2088;51.032;7.082;2022-07-23T00:19:43;49623.91;;;-142.28;98.90
4149;BME280;2088;51.032;7.082;2022-07-23T00:22:09;49616.16;;;-142.28;98.03
4149;BME280;2088;51.032;7.082;2022-07-23T00:24:36;49639.38;;;-142.28;99.32
4149;BME280;2088;51.032;7.082;2022-07-23T00:27:02;49681.97;;;-142.28;100.00
4149;BME280;2088;51.032;7.082;2022-07-23T00:29:29;49689.72;;;-142.28;100.00
4149;BME280;2088;51.032;7.082;2022-07-23T00:31:55;49743.94;;;-142.28;100.00
4149;BME280;2088;51.032;7.082;2022-07-23T00:34:23;49809.78;;;-142.28;100.00
4149;BME280;2088;51.032;7.082;2022-07-23T00:36:49;49922.06;;;-142.28;100.00
4149;BME280;2088;51.032;7.082;2022-07-23T00:39:18;50016.94;;;-142.28;100.00
4149;BME280;2088;51.032;7.082;2022-07-23T00:41:46;50137.00;;;-142.28;100.00
4149;BME280;2088;51.032;7.082;2022-07-23T00:44:20;50313.22;;;-142.28;100.00
4149;BME280;2088;51.032;7.082;2022-07-23T00:46:49;50473.94;;;-142.28;100.00
4149;BME280;2088;51.032;7.082;2022-07-23T00:49:18;50665.66;;;-142.28;100.00
4149;BME280;2088;51.032;7.082;2022-07-23T00:51:46;50770.25;;;-142.28;100.00
4149;BME280;2088;51.032;7.082;2022-07-23T00:54:13;50907.75;;;-142.28;100.00
4149;BME280;2088;51.032;7.082;2022-07-23T00:56:41;51095.63;;;-142.28;100.00
4149;BME280;2088;51.032;7.082;2022-07-23T00:59:08;51362.94;;;-142.28;100.00
4149;BME280;2088;51.032;7.082;2022-07-23T01:01:35;51430.72;;;-142.28;100.00
4149;BME280;2088;51.032;7.082;2022-07-23T01:04:01;51554.69;;;-142.28;100.00
4149;BME280;2088;51.032;7.082;2022-07-23T01:06:28;51564.38;;;-142.28;100.00
4149;BME280;2088;51.032;7.082;2022-07-23T01:08:56;51661.25;;;-142.28;100.00
4149;BME280;2088;51.032;7.082;2022-07-23T01:11:23;51746.50;;;-142.28;100.00
4149;BME280;2088;51.032;7.082;2022-07-23T01:13:49;51835.59;;;-142.28;100.00
4149;BME280;2088;51.032;7.082;2022-07-23T01:16:16;51870.47;;;-142.28;100.00
4149;BME280;2088;51.032;7.082;2022-07-23T01:18:42;51814.28;;;-142.28;100.00
4149;BME280;2088;51.032;7.082;2022-07-23T01:21:11;51800.72;;;-142.28;100.00
4149;BME280;2088;51.032;7.082;2022-07-23T01:23:40;51946.03;;;-142.28;100.00
4149;BME280;2088;51.032;7.082;2022-07-23T01:26:07;52120.41;;;-142.28;100.00
4149;BME280;2088;51.032;7.082;2022-07-23T01:28:33;52304.47;;;-142.28;100.00
4149;BME280;2088;51.032;7.082;2022-07-23T01:30:59;52288.97;;;-142.28;100.00
4149;BME280;2088;51.032;7.082;2022-07-23T01:33:26;52366.47;;;-142.28;100.00
4149;BME280;2088;51.032;7.082;2022-07-23T01:35:53;52443.97;;;-142.28;100.00
4149;BME280;2088;51.032;7.082;2022-07-23T01:38:19;52490.47;;;-142.28;100.00
4149;BME280;2088;51.032;7.082;2022-07-23T01:40:47;52540.88;;;-142.28;100.00
4149;BME280;2088;51.032;7.082;2022-07-23T01:43:13;52500.16;;;-142.28;100.00
4149;BME280;2088;51.032;7.082;2022-07-23T01:45:40;52540.88;;;-142.28;100.00
4149;BME280;2088;51.032;7.082;2022-07-23T01:48:07;52409.09;;;-142.28;100.00
4149;BME280;2088;51.032;7.082;2022-07-23T01:50:34;52412.97;;;-142.28;100.00
4149;BME280;2088;51.032;7.082;2022-07-23T01:53:00;52467.22;;;-142.28;100.00
4149;BME280;2088;51.032;7.082;2022-07-23T01:55:27;52480.78;;;-142.28;100.00
4149;BME280;2088;51.032;7.082;2022-07-23T01:57:55;52440.09;;;-142.28;100.00
4149;BME280;2088;51.032;7.082;2022-07-23T02:00:21;52469.16;;;-142.28;100.00
4149;BME280;2088;51.032;7.082;2022-07-23T02:02:48;52449.78;;;-142.28;100.00
4149;BME280;2088;51.032;7.082;2022-07-23T02:05:14;52428.47;;;-142.28;100.00
4149;BME280;2088;51.032;7.082;2022-07-23T02:07:41;52420.72;;;-142.28;100.00
4149;BME280;2088;51.032;7.082;2022-07-23T02:10:08;52451.72;;;-142.28;100.00
4149;BME280;2088;51.032;7.082;2022-07-23T02:12:35;52440.09;;;-142.28;100.00
4149;BME280;2088;51.032;7.082;2022-07-23T02:15:03;52583.50;;;-142.28;100.00
4149;BME280;2088;51.032;7.082;2022-07-23T02:17:30;52701.69;;;-142.28;100.00
4149;BME280;2088;51.032;7.082;2022-07-23T02:19:57;52802.47;;;-142.28;100.00
4149;BME280;2088;51.032;7.082;2022-07-23T02:22:24;52860.59;;;-142.28;100.00
4149;BME280;2088;51.032;7.082;2022-07-23T02:24:50;52864.47;;;-142.28;100.00
4149;BME280;2088;51.032;7.082;2022-07-23T02:27:17;52891.63;;;-142.28;100.00
4149;BME280;2088;51.032;7.082;2022-07-23T02:29:43;52870.28;;;-142.28;100.00
4149;BME280;2088;51.032;7.082;2022-07-23T02:32:11;52800.53;;;-142.28;100.00
4149;BME280;2088;51.032;7.082;2022-07-23T02:34:37;52788.91;;;-142.28;100.00
4149;BME280;2088;51.032;7.082;2022-07-23T02:37:04;52816.03;;;-142.28;100.00
4149;BME280;2088;51.032;7.082;2022-07-23T02:39:30;52909.06;;;-142.28;100.00
4149;BME280;2088;51.032;7.082;2022-07-23T02:41:57;52819.91;;;-142.28;100.00
4149;BME280;2088;51.032;7.082;2022-07-23T02:44:23;52785.03;;;-142.28;100.00
4149;BME280;2088;51.032;7.082;2022-07-23T02:46:50;52829.59;;;-142.28;100.00
4149;BME280;2088;51.032;7.082;2022-07-23T02:49:17;52878.03;;;-142.28;100.00
4149;BME280;2088;51.032;7.082;2022-07-23T02:51:44;52914.88;;;-142.28;100.00
4149;BME280;2088;51.032;7.082;2022-07-23T02:54:10;52945.88;;;-142.28;100.00
4149;BME280;2088;51.032;7.082;2022-07-23T02:56:37;52920.69;;;-142.28;100.00
4149;BME280;2088;51.032;7.082;2022-07-23T02:59:03;52614.50;;;-142.28;100.00
4149;BME280;2088;51.032;7.082;2022-07-23T03:01:30;52957.50;;;-142.28;100.00
4149;BME280;2088;51.032;7.082;2022-07-23T03:03:56;52990.44;;;-142.28;100.00
4149;BME280;2088;51.032;7.082;2022-07-23T03:06:24;52996.25;;;-142.28;100.00
4149;BME280;2088;51.032;7.082;2022-07-23T03:08:51;53052.47;;;-142.28;100.00
4149;BME280;2088;51.032;7.082;2022-07-23T03:11:17;53108.66;;;-142.28;100.00
4149;BME280;2088;51.032;7.082;2022-07-23T03:13:44;53087.34;;;-142.28;100.00
4149;BME280;2088;51.032;7.082;2022-07-23T03:16:10;53155.19;;;-142.28;100.00
4149;BME280;2088;51.032;7.082;2022-07-23T03:18:37;53254.03;;;-142.28;100.00
4149;BME280;2088;51.032;7.082;2022-07-23T03:21:03;53246.28;;;-142.28;100.00
4149;BME280;2088;51.032;7.082;2022-07-23T03:23:31;53316.03;;;-142.28;100.00
4149;BME280;2088;51.032;7.082;2022-07-23T03:25:58;53316.03;;;-142.28;100.00
4149;BME280;2088;51.032;7.082;2022-07-23T03:28:24;53290.84;;;-142.28;100.00
4149;BME280;2088;51.032;7.082;2022-07-23T03:30:51;53381.94;;;-142.28;100.00
4149;BME280;2088;51.032;7.082;2022-07-23T03:33:18;53538.94;;;-142.28;100.00
4149;BME280;2088;51.032;7.082;2022-07-23T03:35:46;53589.34;;;-142.28;100.00
4149;BME280;2088;51.032;7.082;2022-07-23T03:38:13;53637.78;;;-142.28;100.00
4149;BME280;2088;51.032;7.082;2022-07-23T03:40:41;53692.06;;;-142.28;100.00
4149;BME280;2088;51.032;7.082;2022-07-23T03:43:08;53796.75;;;-142.28;100.00
4149;BME280;2088;51.032;7.082;2022-07-23T03:45:34;53816.13;;;-142.28;100.00
4149;BME280;2088;51.032;7.082;2022-07-23T03:48:00;53789.00;;;-142.28;100.00
4149;BME280;2088;51.032;7.082;2022-07-23T03:50:27;53783.19;;;-142.28;100.00
4149;BME280;2088;51.032;7.082;2022-07-23T03:52:53;53847.16;;;-142.28;100.00
4149;BME280;2088;51.032;7.082;2022-07-23T03:55:20;53862.66;;;-142.28;100.00
4149;BME280;2088;51.032;7.082;2022-07-23T03:57:48;53920.81;;;-142.28;100.00
4149;BME280;2088;51.032;7.082;2022-07-23T04:00:14;53944.06;;;-142.28;100.00
4149;BME280;2088;51.032;7.082;2022-07-23T04:02:41;53955.69;;;-142.28;100.00
4149;BME280;2088;51.032;7.082;2022-07-23T04:05:08;53944.06;;;-142.28;100.00
4149;BME280;2088;51.032;7.082;2022-07-23T04:07:34;53975.09;;;-142.28;100.00
4149;BME280;2088;51.032;7.082;2022-07-23T04:10:01;53967.34;;;-142.28;100.00
4149;BME280;2088;51.032;7.082;2022-07-23T04:12:27;53982.84;;;-142.28;100.00
4149;BME280;2088;51.032;7.082;2022-07-23T04:14:55;53986.72;;;-142.28;100.00
4149;BME280;2088;51.032;7.082;2022-07-23T04:17:22;53967.34;;;-142.28;100.00
4149;BME280;2088;51.032;7.082;2022-07-23T04:19:48;54013.84;;;-142.28;100.00
4149;BME280;2088;51.032;7.082;2022-07-23T04:22:15;54060.38;;;-142.28;100.00
4149;BME280;2088;51.032;7.082;2022-07-23T04:24:41;54058.44;;;-142.28;100.00
4149;BME280;2088;51.032;7.082;2022-07-23T04:27:08;54039.06;;;-142.28;100.00
4149;BME280;2088;51.032;7.082;2022-07-23T04:29:34;53967.34;;;-142.28;100.00
4149;BME280;2088;51.032;7.082;2022-07-23T04:32:02;53889.78;;;-142.28;100.00
4149;BME280;2088;51.032;7.082;2022-07-23T04:34:29;53878.16;;;-142.28;100.00
4149;BME280;2088;51.032;7.082;2022-07-23T04:36:55;53913.06;;;-142.28;100.00
4149;BME280;2088;51.032;7.082;2022-07-23T04:39:22;53973.16;;;-142.28;100.00
4149;BME280;2088;51.032;7.082;2022-07-23T04:41:48;53924.69;;;-142.28;100.00
4149;BME280;2088;51.032;7.082;2022-07-23T04:44:15;53905.31;;;-142.28;100.00
4149;BME280;2088;51.032;7.082;2022-07-23T04:46:41;53965.41;;;-142.28;100.00
4149;BME280;2088;51.032;7.082;2022-07-23T04:49:09;53905.31;;;-142.28;100.00
4149;BME280;2088;51.032;7.082;2022-07-23T04:51:36;53930.50;;;-142.28;100.00
4149;BME280;2088;51.032;7.082;2022-07-23T04:54:02;53944.06;;;-142.28;100.00
4149;BME280;2088;51.032;7.082;2022-07-23T04:56:29;53940.19;;;-142.28;100.00
4149;BME280;2088;51.032;7.082;2022-07-23T04:58:55;53967.34;;;-142.28;100.00
4149;BME280;2088;51.032;7.082;2022-07-23T05:01:22;53971.22;;;-142.28;100.00
4149;BME280;2088;51.032;7.082;2022-07-23T05:03:48;53938.25;;;-142.28;100.00
4149;BME280;2088;51.032;7.082;2022-07-23T05:06:16;53953.75;;;-142.28;100.00
4149;BME280;2088;51.032;7.082;2022-07-23T05:08:43;53916.94;;;-142.28;100.00
4149;BME280;2088;51.032;7.082;2022-07-23T05:11:09;53891.72;;;-142.28;100.00
4149;BME280;2088;51.032;7.082;2022-07-23T05:13:36;53909.19;;;-142.28;100.00
4149;BME280;2088;51.032;7.082;2022-07-23T05:16:02;53754.09;;;-142.28;100.00
4149;BME280;2088;51.032;7.082;2022-07-23T05:18:29;53792.88;;;-142.28;100.00
4149;BME280;2088;51.032;7.082;2022-07-23T05:20:55;53719.22;;;-142.28;100.00
4149;BME280;2088;51.032;7.082;2022-07-23T05:23:23;53715.34;;;-142.28;100.00
4149;BME280;2088;51.032;7.082;2022-07-23T05:25:50;53637.78;;;-142.28;100.00
4149;BME280;2088;51.032;7.082;2022-07-23T05:28:16;53643.59;;;-142.28;100.00
4149;BME280;2088;51.032;7.082;2022-07-23T05:30:43;53591.28;;;-142.28;100.00
4149;BME280;2088;51.032;7.082;2022-07-23T05:33:09;53575.78;;;-142.28;100.00
4149;BME280;2088;51.032;7.082;2022-07-23T05:35:36;53552.50;;;-142.28;100.00
4149;BME280;2088;51.032;7.082;2022-07-23T05:38:02;53517.63;;;-142.28;100.00
4149;BME280;2088;51.032;7.082;2022-07-23T05:40:30;53542.81;;;-142.28;100.00
4149;BME280;2088;51.032;7.082;2022-07-23T05:42:58;53535.06;;;-142.28;100.00
4149;BME280;2088;51.032;7.082;2022-07-23T05:45:24;53476.91;;;-142.28;100.00
4149;BME280;2088;51.032;7.082;2022-07-23T05:47:51;53478.84;;;-142.28;100.00
4149;BME280;2088;51.032;7.082;2022-07-23T05:50:17;53469.16;;;-142.28;100.00
4149;BME280;2088;51.032;7.082;2022-07-23T05:52:44;53506.00;;;-142.28;100.00
4149;BME280;2088;51.032;7.082;2022-07-23T05:55:11;53476.91;;;-142.28;100.00
4149;BME280;2088;51.032;7.082;2022-07-23T05:57:40;53432.34;;;-142.28;100.00
4149;BME280;2088;51.032;7.082;2022-07-23T06:00:08;53395.50;;;-142.28;100.00
4149;BME280;2088;51.032;7.082;2022-07-23T06:02:35;53416.84;;;-142.28;100.00
4149;BME280;2088;51.032;7.082;2022-07-23T06:05:03;53418.78;;;-142.28;100.00
4149;BME280;2088;51.032;7.082;2022-07-23T06:07:30;53407.13;;;-142.28;100.00
4149;BME280;2088;51.032;7.082;2022-07-23T06:09:56;53391.63;;;-142.28;100.00
4149;BME280;2088;51.032;7.082;2022-07-23T06:12:23;53358.69;;;-142.28;100.00
4149;BME280;2088;51.032;7.082;2022-07-23T06:14:51;53335.44;;;-142.28;100.00
4149;BME280;2088;51.032;7.082;2022-07-23T06:17:17;53352.88;;;-142.28;100.00
4149;BME280;2088;51.032;7.082;2022-07-23T06:19:44;53366.44;;;-142.28;100.00
4149;BME280;2088;51.032;7.082;2022-07-23T06:22:10;53368.38;;;-142.28;100.00
4149;BME280;2088;51.032;7.082;2022-07-23T06:24:37;53345.13;;;-142.28;100.00
4149;BME280;2088;51.032;7.082;2022-07-23T06:27:04;53271.47;;;-142.28;100.00
4149;BME280;2088;51.032;7.082;2022-07-23T06:29:30;53310.22;;;-142.28;100.00
4149;BME280;2088;51.032;7.082;2022-07-23T06:31:58;53300.53;;;-142.28;100.00
4149;BME280;2088;51.032;7.082;2022-07-23T06:34:25;53238.53;;;-142.28;100.00
4149;BME280;2088;51.032;7.082;2022-07-23T06:36:52;53226.88;;;-142.28;100.00
4149;BME280;2088;51.032;7.082;2022-07-23T06:39:18;53170.69;;;-142.28;100.00
4149;BME280;2088;51.032;7.082;2022-07-23T06:41:45;53114.47;;;-142.28;100.00
4149;BME280;2088;51.032;7.082;2022-07-23T06:44:11;53075.72;;;-142.28;100.00
4149;BME280;2088;51.032;7.082;2022-07-23T06:46:38;53118.34;;;-142.28;100.00
4149;BME280;2088;51.032;7.082;2022-07-23T06:49:05;53036.97;;;-142.28;100.00
4149;BME280;2088;51.032;7.082;2022-07-23T06:51:32;53040.84;;;-142.28;100.00
4149;BME280;2088;51.032;7.082;2022-07-23T06:53:58;52992.38;;;-142.28;100.00
4149;BME280;2088;51.032;7.082;2022-07-23T06:56:25;52957.50;;;-142.28;100.00
4149;BME280;2088;51.032;7.082;2022-07-23T06:58:51;53000.13;;;-142.28;100.00
4149;BME280;2088;51.032;7.082;2022-07-23T07:01:18;53283.09;;;-142.28;100.00
4149;BME280;2088;51.032;7.082;2022-07-23T07:03:44;53015.63;;;-142.28;100.00
4149;BME280;2088;51.032;7.082;2022-07-23T07:06:13;53021.44;;;-142.28;100.00
4149;BME280;2088;51.032;7.082;2022-07-23T07:08:40;53002.06;;;-142.28;100.00
4149;BME280;2088;51.032;7.082;2022-07-23T07:11:08;52942.00;;;-142.28;100.00
4149;BME280;2088;51.032;7.082;2022-07-23T07:13:34;52881.91;;;-142.28;100.00
4149;BME280;2088;51.032;7.082;2022-07-23T07:16:01;52881.91;;;-142.28;100.00
4149;BME280;2088;51.032;7.082;2022-07-23T07:18:27;52837.34;;;-142.28;100.00
4149;BME280;2088;51.032;7.082;2022-07-23T07:20:54;52856.72;;;-142.28;100.00
4149;BME280;2088;51.032;7.082;2022-07-23T07:23:22;52860.59;;;-142.28;100.00
4149;BME280;2088;51.032;7.082;2022-07-23T07:25:48;52810.22;;;-142.28;100.00
4149;BME280;2088;51.032;7.082;2022-07-23T07:28:15;52800.53;;;-142.28;100.00
4149;BME280;2088;51.032;7.082;2022-07-23T07:30:41;52726.88;;;-142.28;100.00
4149;BME280;2088;51.032;7.082;2022-07-23T07:33:07;52715.25;;;-142.28;100.00
4149;BME280;2088;51.032;7.082;2022-07-23T07:35:34;52657.13;;;-142.28;100.00
4149;BME280;2088;51.032;7.082;2022-07-23T07:38:00;52564.13;;;-142.28;100.00
4149;BME280;2088;51.032;7.082;2022-07-23T07:40:28;52628.06;;;-142.28;100.00
4149;BME280;2088;51.032;7.082;2022-07-23T07:42:55;52591.25;;;-142.28;100.00
4149;BME280;2088;51.032;7.082;2022-07-23T07:45:24;52585.44;;;-142.28;100.00
4149;BME280;2088;51.032;7.082;2022-07-23T07:47:51;52505.97;;;-142.28;100.00
4149;BME280;2088;51.032;7.082;2022-07-23T07:50:17;52533.13;;;-142.28;100.00
4149;BME280;2088;51.032;7.082;2022-07-23T07:52:44;52474.97;;;-142.28;100.00
4149;BME280;2088;51.032;7.082;2022-07-23T07:55:11;52447.84;;;-142.28;100.00
4149;BME280;2088;51.032;7.082;2022-07-23T07:57:39;52486.59;;;-142.28;100.00
4149;BME280;2088;51.032;7.082;2022-07-23T08:00:08;52463.34;;;-142.28;100.00
4149;BME280;2088;51.032;7.082;2022-07-23T08:02:45;52507.91;;;-142.28;100.00
4149;BME280;2088;51.032;7.082;2022-07-23T08:05:13;52459.47;;;-142.28;100.00
4149;BME280;2088;51.032;7.082;2022-07-23T08:07:40;52432.34;;;-142.28;100.00
4149;BME280;2088;51.032;7.082;2022-07-23T08:10:08;52333.53;;;-142.28;97.34
4149;BME280;2088;51.032;7.082;2022-07-23T08:12:40;52319.97;;;-142.28;97.50
4149;BME280;2088;51.032;7.082;2022-07-23T08:15:08;52250.22;;;-142.28;94.82
4149;BME280;2088;51.032;7.082;2022-07-23T08:17:35;52157.22;;;-142.28;96.82
4149;BME280;2088;51.032;7.082;2022-07-23T08:20:02;52151.41;;;-142.28;94.71
4149;BME280;2088;51.032;7.082;2022-07-23T08:22:42;52213.41;;;-142.28;96.45
4149;BME280;2088;51.032;7.082;2022-07-23T08:25:08;52116.53;;;-142.28;95.00
4149;BME280;2088;51.032;7.082;2022-07-23T08:27:35;52046.78;;;-142.28;93.34
4149;BME280;2088;51.032;7.082;2022-07-23T08:30:03;52029.34;;;-142.28;93.14
4149;BME280;2088;51.032;7.082;2022-07-23T08:32:30;52048.72;;;-142.28;94.58
4149;BME280;2088;51.032;7.082;2022-07-23T08:34:56;52013.84;;;-142.28;89.64
4149;BME280;2088;51.032;7.082;2022-07-23T08:37:23;51975.09;;;-142.28;89.43
4149;BME280;2088;51.032;7.082;2022-07-23T08:39:49;51841.41;;;-142.28;87.37
4149;BME280;2088;51.032;7.082;2022-07-23T08:42:16;51847.22;;;-142.28;87.76
4149;BME280;2088;51.032;7.082;2022-07-23T08:44:45;51800.72;;;-142.28;87.22
4149;BME280;2088;51.032;7.082;2022-07-23T08:47:14;51723.25;;;-142.28;85.32
4149;BME280;2088;51.032;7.082;2022-07-23T08:49:42;51727.13;;;-142.28;86.67
4149;BME280;2088;51.032;7.082;2022-07-23T08:52:10;51684.50;;;-142.28;87.87
4149;BME280;2088;51.032;7.082;2022-07-23T08:54:37;51667.06;;;-142.28;86.14
4149;BME280;2088;51.032;7.082;2022-07-23T08:57:04;51696.13;;;-142.28;88.56
4149;BME280;2088;51.032;7.082;2022-07-23T08:59:31;51700.00;;;-142.28;87.45
4149;BME280;2088;51.032;7.082;2022-07-23T09:01:57;51669.00;;;-142.28;88.36
4149;BME280;2088;51.032;7.082;2022-07-23T09:04:26;51647.69;;;-142.28;87.40
4149;BME280;2088;51.032;7.082;2022-07-23T09:06:53;51595.38;;;-142.28;85.16
4149;BME280;2088;51.032;7.082;2022-07-23T09:09:20;51576.00;;;-142.28;86.24
4149;BME280;2088;51.032;7.082;2022-07-23T09:11:48;51564.38;;;-142.28;83.74
4149;BME280;2088;51.032;7.082;2022-07-23T09:14:14;51488.84;;;-142.28;86.49
4149;BME280;2088;51.032;7.082;2022-07-23T09:16:41;51552.75;;;-142.28;87.36
4149;BME280;2088;51.032;7.082;2022-07-23T09:19:09;51486.91;;;-142.28;84.44
4149;BME280;2088;51.032;7.082;2022-07-23T09:21:39;51469.47;;;-142.28;84.89
4149;BME280;2088;51.032;7.082;2022-07-23T09:24:07;51461.72;;;-142.28;84.74
4149;BME280;2088;51.032;7.082;2022-07-23T09:26:36;51448.16;;;-142.28;83.69
4149;BME280;2088;51.032;7.082;2022-07-23T09:29:08;51469.47;;;-142.28;84.27
4149;BME280;2088;51.032;7.082;2022-07-23T09:31:49;51477.22;;;-142.28;82.83
4149;BME280;2088;51.032;7.082;2022-07-23T09:34:19;51409.41;;;-142.28;80.73
4149;BME280;2088;51.032;7.082;2022-07-23T09:36:49;51368.75;;;-142.28;81.98
4149;BME280;2088;51.032;7.082;2022-07-23T09:39:26;51341.63;;;-142.28;80.29
4149;BME280;2088;51.032;7.082;2022-07-23T09:41:53;51351.31;;;-142.28;80.08
4149;BME280;2088;51.032;7.082;2022-07-23T09:44:20;51107.25;;;-142.28;80.35
4149;BME280;2088;51.032;7.082;2022-07-23T09:46:48;51266.06;;;-142.28;76.75
4149;BME280;2088;51.032;7.082;2022-07-23T09:49:17;51297.06;;;-142.28;80.24
4149;BME280;2088;51.032;7.082;2022-07-23T09:51:48;51221.53;;;-142.28;78.28
4149;BME280;2088;51.032;7.082;2022-07-23T09:54:23;51297.06;;;-142.28;81.86
4149;BME280;2088;51.032;7.082;2022-07-23T09:56:51;51207.97;;;-142.28;77.22
4149;BME280;2088;51.032;7.082;2022-07-23T09:59:18;51215.72;;;-142.28;76.55
4149;BME280;2088;51.032;7.082;2022-07-23T10:01:48;51186.66;;;-142.28;76.13
4149;BME280;2088;51.032;7.082;2022-07-23T10:04:16;51186.66;;;-142.28;78.01
4149;BME280;2088;51.032;7.082;2022-07-23T10:06:45;51217.66;;;-142.28;78.57
4149;BME280;2088;51.032;7.082;2022-07-23T10:09:16;51116.94;;;-142.28;74.85
4149;BME280;2088;51.032;7.082;2022-07-23T10:11:44;51136.31;;;-142.28;77.30
4149;BME280;2088;51.032;7.082;2022-07-23T10:14:10;51066.56;;;-142.28;75.97
4149;BME280;2088;51.032;7.082;2022-07-23T10:16:37;51014.28;;;-142.28;70.52
4149;BME280;2088;51.032;7.082;2022-07-23T10:19:04;50969.72;;;-142.28;69.62
4149;BME280;2088;51.032;7.082;2022-07-23T10:21:39;50967.78;;;-142.28;69.70
4149;BME280;2088;51.032;7.082;2022-07-23T10:24:16;50917.44;;;-142.28;67.87
4149;BME280;2088;51.032;7.082;2022-07-23T10:26:51;50896.13;;;-142.28;68.40
4149;BME280;2088;51.032;7.082;2022-07-23T10:29:29;50839.97;;;-142.28;66.66
4149;BME280;2088;51.032;7.082;2022-07-23T10:32:04;50863.22;;;-142.28;68.37
4149;BME280;2088;51.032;7.082;2022-07-23T10:34:40;50872.88;;;-142.28;67.58
4149;BME280;2088;51.032;7.082;2022-07-23T10:37:13;50814.78;;;-142.28;66.37
4149;BME280;2088;51.032;7.082;2022-07-23T10:39:45;50861.28;;;-142.28;66.19
4149;BME280;2088;51.032;7.082;2022-07-23T10:42:13;50807.03;;;-142.28;64.02
4149;BME280;2088;51.032;7.082;2022-07-23T10:44:43;50785.72;;;-142.28;62.77
4149;BME280;2088;51.032;7.082;2022-07-23T10:47:10;50599.81;;;-142.28;58.47
4149;BME280;2088;51.032;7.082;2022-07-23T10:49:49;50642.41;;;-142.28;61.35
4149;BME280;2088;51.032;7.082;2022-07-23T10:52:17;50669.53;;;-142.28;62.51
4149;BME280;2088;51.032;7.082;2022-07-23T10:54:47;50617.25;;;-142.28;60.69
4149;BME280;2088;51.032;7.082;2022-07-23T10:57:15;50561.09;;;-142.28;59.40
4149;BME280;2088;51.032;7.082;2022-07-23T11:00:16;50557.22;;;-142.28;58.75
4149;BME280;2088;51.032;7.082;2022-07-23T11:02:47;50528.16;;;-142.28;58.78
4149;BME280;2088;51.032;7.082;2022-07-23T11:05:16;50437.16;;;-142.28;58.90
4149;BME280;2088;51.032;7.082;2022-07-23T11:08:14;50454.56;;;-142.28;57.43
4149;BME280;2088;51.032;7.082;2022-07-23T11:10:45;50473.94;;;-142.28;58.54
4149;BME280;2088;51.032;7.082;2022-07-23T11:13:40;50425.53;;;-142.28;58.67
4149;BME280;2088;51.032;7.082;2022-07-23T11:16:12;50524.28;;;-142.28;60.96
4149;BME280;2088;51.032;7.082;2022-07-23T11:19:04;50493.31;;;-142.28;58.54
4149;BME280;2088;51.032;7.082;2022-07-23T11:21:47;50464.25;;;-142.28;57.89
4149;BME280;2088;51.032;7.082;2022-07-23T11:24:17;50388.72;;;-142.28;55.87
4149;BME280;2088;51.032;7.082;2022-07-23T11:26:47;50452.63;;;-142.28;56.76
4149;BME280;2088;51.032;7.082;2022-07-23T11:29:43;50138.94;;;-142.28;53.54
4149;BME280;2088;51.032;7.082;2022-07-23T11:32:20;50131.19;;;-142.28;56.09
4149;BME280;2088;51.032;7.082;2022-07-23T11:34:50;50076.97;;;-142.28;54.77
4149;BME280;2088;51.032;7.082;2022-07-23T11:37:28;50046.00;;;-142.28;53.62
4149;BME280;2088;51.032;7.082;2022-07-23T11:39:56;50005.31;;;-142.28;54.41
4149;BME280;2088;51.032;7.082;2022-07-23T11:42:24;50022.75;;;-142.28;53.59
4149;BME280;2088;51.032;7.082;2022-07-23T11:44:51;49811.69;;;-142.28;50.43
4149;BME280;2088;51.032;7.082;2022-07-23T11:47:22;49705.22;;;-142.28;49.23
4149;BME280;2088;51.032;7.082;2022-07-23T11:49:52;49496.13;;;-142.28;44.40
4149;BME280;2088;51.032;7.082;2022-07-23T11:52:18;49215.41;;;-142.28;37.96
4149;BME280;2088;51.032;7.082;2022-07-23T11:54:47;48880.53;;;-142.28;35.67
4149;BME280;2088;51.032;7.082;2022-07-23T11:57:16;48795.38;;;-142.28;35.20
4149;BME280;2088;51.032;7.082;2022-07-23T11:59:46;48657.94;;;-142.28;33.96
4149;BME280;2088;51.032;7.082;2022-07-23T12:02:12;48580.53;;;-142.28;33.59
4149;BME280;2088;51.032;7.082;2022-07-23T12:04:40;48528.28;;;-142.28;32.87
4149;BME280;2088;51.032;7.082;2022-07-23T12:07:28;48446.97;;;-142.28;32.19
4149;BME280;2088;51.032;7.082;2022-07-23T12:09:56;48425.69;;;-142.28;33.33
4149;BME280;2088;51.032;7.082;2022-07-23T12:12:23;48406.34;;;-142.28;33.31
4149;BME280;2088;51.032;7.082;2022-07-23T12:14:54;48396.66;;;-142.28;32.86
4149;BME280;2088;51.032;7.082;2022-07-23T12:17:28;48354.09;;;-142.28;32.72
4149;BME280;2088;51.032;7.082;2022-07-23T12:19:55;48299.91;;;-142.28;30.85
4149;BME280;2088;51.032;7.082;2022-07-23T12:22:23;48321.19;;;-142.28;31.69
4149;BME280;2088;51.032;7.082;2022-07-23T12:24:57;48251.50;;;-142.28;30.96
4149;BME280;2088;51.032;7.082;2022-07-23T12:27:24;48299.91;;;-142.28;30.81
4149;BME280;2088;51.032;7.082;2022-07-23T12:29:52;48294.09;;;-142.28;32.72
4149;BME280;2088;51.032;7.082;2022-07-23T12:32:21;48265.06;;;-142.28;31.72
4149;BME280;2088;51.032;7.082;2022-07-23T12:34:49;48237.97;;;-142.28;30.56
4149;BME280;2088;51.032;7.082;2022-07-23T12:37:29;48226.34;;;-142.28;30.83
4149;BME280;2088;51.032;7.082;2022-07-23T12:39:56;48239.91;;;-142.28;29.88
4149;BME280;2088;51.032;7.082;2022-07-23T12:42:23;48183.78;;;-142.28;29.71
4149;BME280;2088;51.032;7.082;2022-07-23T12:45:09;48205.06;;;-142.28;30.14
4149;BME280;2088;51.032;7.082;2022-07-23T12:48:06;48207.00;;;-142.28;30.83
4149;BME280;2088;51.032;7.082;2022-07-23T12:50:38;48176.03;;;-142.28;29.94
4149;BME280;2088;51.032;7.082;2022-07-23T12:53:06;48148.94;;;-142.28;29.09
4149;BME280;2088;51.032;7.082;2022-07-23T12:55:33;48191.53;;;-142.28;31.30
4149;BME280;2088;51.032;7.082;2022-07-23T12:58:05;48201.19;;;-142.28;31.41
4149;BME280;2088;51.032;7.082;2022-07-23T13:00:48;48160.56;;;-142.28;30.90